Tiempo atmosférico en la estación meteorológica de Belorado, Burgos (875 m.)



Fecha
DESCASC
Temp. máxima en grados centígrados (hora)
DESCASC
Temp. mínima en grados centígrados (hora)
DESCASC
Temp. media en grados centígrados
DESCASC
Racha de viento máxima en m/sg (hora)
DESCASC
Velocidad máxima media en intervalos de 10 minutos(hora)
DESCASC
Precipitaciones diarias en mm
DESCASC
Precipitaciones de 00:00 a 06:00 en mm
DESCASC
Precipitaciones de 06:00 a 12:00 en mm
DESCASC
Precipitaciones de 12:00 a 18:00 en mm
DESCASC
Precipitaciones de 18:00 a 24:00 en mm
DESCASC
20-09-2020 18.9 (12:50) 12.9 (08:10) 15.9 5.83 (01:50) 3.33 (11:00) 8.5 0 0 6.9 1.6
19-09-2020 19.3 (16:50) 12.8 (08:30) 16 10 (19:20) 5.83 (19:20) 12.8 0 2.7 2 8.1
18-09-2020 22 (00:50) 14.4 (11:30) 18.2 12.78 (01:00) 4.72 (04:00) 23.9 11.8 6.6 5.5 0
17-09-2020 27.3 (18:00) 16.4 (00:00) 21.8 6.11 (15:30) 3.61 (15:30) 1.6 1.6 0 0 0
16-09-2020 29 (17:30) 14.1 (00:00) 21.6 7.78 (14:50) 4.17 (18:30) 0 0 0 0 0
15-09-2020 28.2 (15:20) 14.5 (00:00) 21.4 9.72 (02:10) 4.17 (17:30) 0.3 0.3 0 0 0
14-09-2020 30.2 (17:40) 12.7 (00:00) 21.5 8.89 (15:20) 4.72 (17:40) 0 0 0 0 0
13-09-2020 30.7 (17:30) 10.8 (07:30) 20.8 8.61 (16:40) 5.56 (16:10) 0 0 0 0 0
12-09-2020 28.4 (16:50) 10.9 (05:30) 19.6 7.22 (17:30) 3.89 (17:10) 0 0 0 0 0
11-09-2020 27.2 (16:30) 11 (07:40) 19.1 7.78 (18:30) 3.89 (19:10) 0 0 0 0 0

Gráficas

Temp. máximas Temp. mínimas Temp. medias Precipitaciones Rachas de viento máximas Velocidades máximas media en intervalos de 10 minutos

Datos horarios

Fecha y hora oficial Temperatura (ºC) Velocidad del viento (km/h) Dirección del viento Racha (km/h) Dirección de racha Precipitación (mm) Presión (hPa) Tendencia (hPa) Humedad (%)
2020-09-20 23:00:00 14.7 2 Este 10 Este 0 -- -- 95
2020-09-20 22:00:00 15 5 Este 11 Este 0 -- -- 93
2020-09-20 21:00:00 15.5 0 Calma 8 Este 0 -- -- 90
2020-09-20 20:00:00 15.5 7 Este 14 Norte 1.6 -- -- 89
2020-09-20 19:00:00 17.5 0 Calma 7 Norte 0 -- -- 77
2020-09-20 18:00:00 17.3 5 Norte 11 Norte 0 -- -- 79
2020-09-20 17:00:00 18.1 0 Calma 11 Oeste 0.5 -- -- 86
2020-09-20 16:00:00 17.1 3 Sudoeste 11 Oeste 0.8 -- -- 86
2020-09-20 15:00:00 16.6 9 Oeste 18 Sur 4.5 -- -- 87
2020-09-20 14:00:00 16.8 5 Sudoeste 15 Sur 1.1 -- -- 83
2020-09-20 13:00:00 18.8 7 Oeste 19 Oeste 0 -- -- 68
2020-09-20 12:00:00 18.3 6 Oeste 17 Oeste 0 -- -- 69
2020-09-20 11:00:00 17.5 12 Oeste 17 Oeste 0 -- -- 78
2020-09-20 10:00:00 16.4 4 Sudoeste 9 Sur 0 -- -- 82
2020-09-20 09:00:00 14.4 0 Calma 8 Oeste 0 -- -- 93
2020-09-20 08:00:00 13.1 4 Oeste 12 Oeste 0 -- -- 93
2020-09-20 07:00:00 13.5 7 Oeste 12 Oeste 0 -- -- 90
2020-09-20 06:00:00 14.5 6 Oeste 13 Oeste 0 -- -- 89
2020-09-20 05:00:00 14.5 4 Sudoeste 17 Oeste 0 -- -- 86
2020-09-20 04:00:00 14.9 6 Sudoeste 19 Oeste 0 -- -- 86
2020-09-20 03:00:00 14.5 5 Sudoeste 17 Oeste 0 -- -- 86
2020-09-20 02:00:00 15 5 Sudoeste 21 Oeste 0 -- -- 86
2020-09-20 01:00:00 14.9 5 Sudoeste 19 Sur 0 -- -- 85
2020-09-20 00:00:00 15 2 Sudoeste 12 Sudoeste 0 -- -- 89
2020-09-19 23:00:00 15.1 5 Sudoeste 12 Oeste 0 -- -- 89
2020-09-19 22:00:00 14.6 3 Sudoeste 11 Oeste 0.3 -- -- 91
2020-09-19 21:00:00 14.4 6 Sudoeste 17 Oeste 4.4 -- -- 93
2020-09-19 20:00:00 14.6 0 Calma 36 Oeste 3.4 -- -- 88
2020-09-19 19:00:00 16.5 8 Norte 35 Oeste 0 -- -- 65
2020-09-19 18:00:00 18.6 10 Sudoeste 35 Oeste 0 -- -- 63
2020-09-19 17:00:00 18.7 8 Sudoeste 33 Sur 0 -- -- 64
2020-09-19 16:00:00 18.8 7 Sudoeste 31 Oeste 0 -- -- 69
2020-09-19 15:00:00 17.3 12 Sudoeste 32 Oeste 0 -- -- 76
2020-09-19 14:00:00 15.9 9 Oeste 28 Oeste 1.2 -- -- 86
2020-09-19 13:00:00 16 9 Sudoeste 28 Este 0.8 -- -- 86
2020-09-19 12:00:00 14.7 11 Este 18 Este 1.4 -- -- 96
2020-09-19 11:00:00 14.3 0 Calma 12 Este 1 -- -- 99
2020-09-19 10:00:00 13.9 4 Este 11 Este 0.3 -- -- 99
2020-09-19 09:00:00 13.3 11 Este 15 Este 0 -- -- 94
2020-09-19 08:00:00 13.1 0 Calma 8 Oeste 0 -- -- 89
2020-09-19 07:00:00 13.6 2 Sudeste 17 Sur 0 -- -- 86
2020-09-19 06:00:00 14 0 Calma 11 Norte 0 -- -- 90
2020-09-19 05:00:00 13.8 4 Norte 10 Norte 0 -- -- 91
2020-09-19 04:00:00 14 0 Calma 10 Este 0 -- -- 90
2020-09-19 03:00:00 13.4 0 Calma 11 Noroeste 0 -- -- 94
2020-09-19 02:00:00 13.5 0 Calma 15 Norte 0 -- -- 90
2020-09-19 01:00:00 14.1 5 Noroeste 13 Norte 0 -- -- 87
2020-09-19 00:00:00 15.9 3 Sudoeste 16 Este 0 -- -- 74
2020-09-18 23:00:00 16.3 2 Sur 9 Norte 0 -- -- 80
2020-09-18 22:00:00 16.9 0 Calma 16 Oeste 0 -- -- 75
2020-09-18 21:00:00 17.7 3 Oeste 12 Oeste 0 -- -- 76
2020-09-18 20:00:00 19.2 0 Calma 7 Sur 0 -- -- 72
2020-09-18 19:00:00 20.7 0 Calma 9 Norte 0 -- -- 65
2020-09-18 18:00:00 19.8 4 Nordeste 14 Este 0 -- -- 69
2020-09-18 17:00:00 20.2 8 Este 23 Este 0 -- -- 73
2020-09-18 16:00:00 18.6 4 Sudeste 19 Sur 0.1 -- -- 78
2020-09-18 15:00:00 15.7 9 Sur 45 Sur 5.4 -- -- 83
2020-09-18 14:00:00 19.6 16 Oeste 24 Oeste 0 -- -- 65
2020-09-18 13:00:00 18.5 12 Sur 26 Sur 0 -- -- 62
2020-09-18 12:00:00 15.1 6 Sur 26 Oeste 4.5 -- -- 86
2020-09-18 11:00:00 15.1 11 Sudoeste 41 Oeste 0.1 -- -- 83
2020-09-18 10:00:00 15.7 3 Norte 10 Norte 0 -- -- 90
2020-09-18 09:00:00 15.2 2 Sudoeste 27 Oeste 1.3 -- -- 95
2020-09-18 08:00:00 15.8 0 Calma 17 Este 0.4 -- -- 97
2020-09-18 07:00:00 16 6 Este 18 Este 0.3 -- -- 97
2020-09-18 06:00:00 15.6 15 Este 22 Este 1.4 -- -- 96
2020-09-18 05:00:00 16 9 Este 23 Sur 1.6 -- -- 93
2020-09-18 04:00:00 17.4 17 Sur 28 Sur 0.4 -- -- 79
2020-09-18 03:00:00 17.1 2 Sudeste 11 Oeste 1.4 -- -- 90
2020-09-18 02:00:00 17.3 8 Sur 37 Sur 6.2 -- -- 87
2020-09-18 01:00:00 20.1 15 Sur 46 Sur 0.8 -- -- 56
2020-09-18 00:00:00 20.6 6 Este 21 Este 0 -- -- 55
2020-09-17 23:00:00 20.7 6 Este 15 Este 0 -- -- 55
2020-09-17 22:00:00 21.6 5 Norte 10 Sudoeste 0 -- -- 51
2020-09-17 21:00:00 22.7 6 Sur 17 Sur 0 -- -- 46
2020-09-17 20:00:00 24.8 5 Este 18 Sur 0 -- -- 41
2020-09-17 19:00:00 26.2 7 Sur 21 Sur 0 -- -- 37
2020-09-17 18:00:00 27 4 Sur 15 Sur 0 -- -- 37
2020-09-17 17:00:00 26.4 0 Calma 16 Este 0 -- -- 44
2020-09-17 16:00:00 25.7 7 Este 22 Este 0 -- -- 50
2020-09-17 15:00:00 24.3 8 Este 17 Este 0 -- -- 52
2020-09-17 14:00:00 25.3 5 Nordeste 18 Este 0 -- -- 51
2020-09-17 13:00:00 24 10 Este 16 Este 0 -- -- 58
2020-09-17 12:00:00 22.6 3 Este 10 Este 0 -- -- 68
2020-09-17 11:00:00 18.7 3 Este 7 Este 0 -- -- 84
2020-09-17 10:00:00 17.5 0 Calma -- -- 0 -- -- 91
2020-09-17 09:00:00 16.6 0 Calma -- -- 0 -- -- 92
2020-09-17 08:00:00 16.9 0 Calma 6 Este 0 -- -- 92
2020-09-17 07:00:00 16.7 0 Calma 7 Este 0 -- -- 93
2020-09-17 06:00:00 16.5 2 Sur 8 Sur 0 -- -- 93
2020-09-17 05:00:00 16.9 0 Calma 9 Sur 0 -- -- 90
2020-09-17 04:00:00 18.2 4 Este 11 Sur 0.6 -- -- 89
2020-09-17 03:00:00 18.2 3 Sur 10 Sur 1 -- -- 80
2020-09-17 02:00:00 19 0 Calma 6 Oeste 0 -- -- 67
2020-09-17 01:00:00 19.3 0 Calma 6 Nordeste 0 -- -- 65
2020-09-17 00:00:00 19.2 0 Calma 8 Sur 0 -- -- 63
2020-09-16 23:00:00 19.9 0 Calma 8 Este 0 -- -- 55
2020-09-16 22:00:00 20.3 5 Este 19 Norte 0 -- -- 50
2020-09-16 21:00:00 23.1 4 Sudeste 13 Este 0 -- -- 43
2020-09-16 20:00:00 24.9 4 Este 20 Este 0 -- -- 38
2020-09-16 19:00:00 26.9 14 Este 22 Este 0 -- -- 33
2020-09-16 18:00:00 27.8 13 Este 21 Norte 0 -- -- 32
2020-09-16 17:00:00 28 10 Este 19 Este 0 -- -- 34
2020-09-16 16:00:00 27.3 10 Este 24 Este 0 -- -- 34
2020-09-16 15:00:00 27.6 8 Este 28 Norte 0 -- -- 35
2020-09-16 14:00:00 27.3 8 Nordeste 19 Norte 0 -- -- 38
2020-09-16 13:00:00 26.2 8 Norte 15 Norte 0 -- -- 44
2020-09-16 12:00:00 23.6 6 Norte 13 Norte 0 -- -- 51
2020-09-16 11:00:00 21.6 7 Norte 10 Norte 0 -- -- 61
2020-09-16 10:00:00 19.4 0 Calma 4 Sur 0 -- -- 72
2020-09-16 09:00:00 15.6 0 Calma 9 Oeste 0 -- -- 84
2020-09-16 08:00:00 14.1 2 Sudoeste 10 Oeste 0 -- -- 86
2020-09-16 07:00:00 14.4 0 Calma 10 Oeste 0 -- -- 86
2020-09-16 06:00:00 14.7 4 Sudoeste 10 Oeste 0 -- -- 86
2020-09-16 05:00:00 14.9 4 Sudoeste 10 Sur 0 -- -- 84
2020-09-16 04:00:00 15.4 2 Sudoeste 10 Sur 0 -- -- 83
2020-09-16 03:00:00 15.7 3 Sudoeste 8 Oeste 0 -- -- 83
2020-09-16 02:00:00 16 0 Calma 9 Sur 0 -- -- 81
2020-09-16 01:00:00 16.4 0 Calma 8 Oeste 0 -- -- 79
2020-09-16 00:00:00 17.1 4 Sudoeste 10 Sur 0 -- -- 75
2020-09-15 23:00:00 17.9 5 Sudoeste 11 Sur 0 -- -- 65
2020-09-15 22:00:00 18.9 3 Oeste 11 Oeste 0 -- -- 61
2020-09-15 21:00:00 20.8 5 Sudoeste 11 Sur 0 -- -- 53
2020-09-15 20:00:00 25 5 Este 14 Este 0 -- -- 41
2020-09-15 19:00:00 26.6 12 Este 21 Este 0 -- -- 39
2020-09-15 18:00:00 27.6 13 Este 23 Este 0 -- -- 37
2020-09-15 17:00:00 27.4 15 Este 23 Este 0 -- -- 38
2020-09-15 16:00:00 26.9 14 Este 29 Este 0 -- -- 41
2020-09-15 15:00:00 26.2 0 Calma 25 Norte 0 -- -- 42
2020-09-15 14:00:00 26.6 9 Norte 23 Este 0 -- -- 43
2020-09-15 13:00:00 25.1 5 Nordeste 20 Norte 0 -- -- 48
2020-09-15 12:00:00 22.1 7 Norte 13 Norte 0 -- -- 58
2020-09-15 11:00:00 20.2 0 Calma 9 Oeste 0 -- -- 71
2020-09-15 10:00:00 17.9 0 Calma 6 Oeste 0 -- -- 82
2020-09-15 09:00:00 15.5 0 Calma 11 Sur 0 -- -- 89
2020-09-15 08:00:00 14.9 2 Sudoeste 11 Oeste 0 -- -- 91
2020-09-15 07:00:00 15.6 4 Sudoeste 13 Este 0 -- -- 89
2020-09-15 06:00:00 17 7 Nordeste 22 Este 0.3 -- -- 81
2020-09-15 05:00:00 17.8 0 Calma 19 Oeste 0 -- -- 73
2020-09-15 04:00:00 19 8 Oeste 14 Oeste 0 -- -- 68